sensor_id;sensor_type;location;lat;lon;timestamp;temperature;humidity
1534;DHT22;760;48.822;9.304;2023-12-20T05:06:16;6.30;99.90
1534;DHT22;760;48.822;9.304;2023-12-20T05:08:42;6.30;99.90
1534;DHT22;760;48.822;9.304;2023-12-20T05:11:07;6.30;99.90
1534;DHT22;760;48.822;9.304;2023-12-20T05:13:33;6.30;99.90
1534;DHT22;760;48.822;9.304;2023-12-20T05:15:58;6.30;99.90
1534;DHT22;760;48.822;9.304;2023-12-20T05:18:24;6.30;99.90
1534;DHT22;760;48.822;9.304;2023-12-20T05:20:50;6.30;99.90
1534;DHT22;760;48.822;9.304;2023-12-20T05:23:16;6.40;99.90
1534;DHT22;760;48.822;9.304;2023-12-20T05:25:42;6.40;99.90
1534;DHT22;760;48.822;9.304;2023-12-20T05:28:08;6.40;99.90
1534;DHT22;760;48.822;9.304;2023-12-20T05:30:33;6.40;99.90
1534;DHT22;760;48.822;9.304;2023-12-20T05:32:59;6.50;99.90
1534;DHT22;760;48.822;9.304;2023-12-20T05:35:25;6.40;99.90
1534;DHT22;760;48.822;9.304;2023-12-20T05:37:50;6.40;99.90
1534;DHT22;760;48.822;9.304;2023-12-20T05:40:16;6.50;99.90
1534;DHT22;760;48.822;9.304;2023-12-20T05:42:41;6.40;99.90
1534;DHT22;760;48.822;9.304;2023-12-20T05:45:07;6.40;99.90
1534;DHT22;760;48.822;9.304;2023-12-20T05:47:33;6.40;99.90
1534;DHT22;760;48.822;9.304;2023-12-20T05:49:58;6.40;99.90
1534;DHT22;760;48.822;9.304;2023-12-20T05:52:24;6.40;99.90
1534;DHT22;760;48.822;9.304;2023-12-20T05:54:50;6.40;99.90
1534;DHT22;760;48.822;9.304;2023-12-20T05:57:15;6.40;99.90
1534;DHT22;760;48.822;9.304;2023-12-20T05:59:41;6.40;99.90
1534;DHT22;760;48.822;9.304;2023-12-20T06:02:06;6.40;99.90
1534;DHT22;760;48.822;9.304;2023-12-20T06:04:32;6.40;99.90
1534;DHT22;760;48.822;9.304;2023-12-20T06:06:58;6.40;99.90
1534;DHT22;760;48.822;9.304;2023-12-20T06:09:25;6.40;99.90
1534;DHT22;760;48.822;9.304;2023-12-20T06:11:51;6.40;99.90
1534;DHT22;760;48.822;9.304;2023-12-20T06:14:17;6.40;99.90
1534;DHT22;760;48.822;9.304;2023-12-20T06:16:43;6.40;99.90
1534;DHT22;760;48.822;9.304;2023-12-20T06:19:08;6.30;99.90
1534;DHT22;760;48.822;9.304;2023-12-20T06:21:34;6.30;99.90
1534;DHT22;760;48.822;9.304;2023-12-20T06:23:59;6.30;99.90
1534;DHT22;760;48.822;9.304;2023-12-20T06:26:25;6.40;99.90
1534;DHT22;760;48.822;9.304;2023-12-20T06:28:51;6.40;99.90
1534;DHT22;760;48.822;9.304;2023-12-20T06:31:16;6.40;99.90
1534;DHT22;760;48.822;9.304;2023-12-20T06:33:43;6.40;99.90
1534;DHT22;760;48.822;9.304;2023-12-20T06:36:11;6.40;99.90
1534;DHT22;760;48.822;9.304;2023-12-20T06:38:38;6.40;99.90
1534;DHT22;760;48.822;9.304;2023-12-20T06:41:04;6.40;99.90
1534;DHT22;760;48.822;9.304;2023-12-20T06:43:30;6.40;99.90
1534;DHT22;760;48.822;9.304;2023-12-20T06:45:56;6.40;99.90
1534;DHT22;760;48.822;9.304;2023-12-20T06:48:22;6.40;99.90
1534;DHT22;760;48.822;9.304;2023-12-20T06:50:48;6.50;99.90
1534;DHT22;760;48.822;9.304;2023-12-20T06:53:13;6.50;99.90
1534;DHT22;760;48.822;9.304;2023-12-20T06:55:39;6.50;99.90
1534;DHT22;760;48.822;9.304;2023-12-20T06:58:04;6.50;99.90
1534;DHT22;760;48.822;9.304;2023-12-20T07:00:30;6.60;99.90
1534;DHT22;760;48.822;9.304;2023-12-20T07:02:56;6.60;99.90
1534;DHT22;760;48.822;9.304;2023-12-20T07:05:22;6.50;99.90
1534;DHT22;760;48.822;9.304;2023-12-20T07:07:48;6.50;99.90
1534;DHT22;760;48.822;9.304;2023-12-20T07:10:13;6.50;99.90
1534;DHT22;760;48.822;9.304;2023-12-20T07:12:39;6.60;99.90
1534;DHT22;760;48.822;9.304;2023-12-20T07:15:05;6.50;99.90
1534;DHT22;760;48.822;9.304;2023-12-20T07:17:33;6.50;99.90
1534;DHT22;760;48.822;9.304;2023-12-20T07:19:59;6.60;99.90
1534;DHT22;760;48.822;9.304;2023-12-20T07:22:31;6.60;99.90
1534;DHT22;760;48.822;9.304;2023-12-20T07:24:58;6.60;99.90
1534;DHT22;760;48.822;9.304;2023-12-20T07:27:24;6.60;99.90
1534;DHT22;760;48.822;9.304;2023-12-20T07:29:49;6.60;99.90
1534;DHT22;760;48.822;9.304;2023-12-20T07:32:15;6.60;99.90
1534;DHT22;760;48.822;9.304;2023-12-20T07:34:41;6.60;99.90
1534;DHT22;760;48.822;9.304;2023-12-20T07:37:06;6.60;99.90
1534;DHT22;760;48.822;9.304;2023-12-20T07:39:32;6.60;99.90
1534;DHT22;760;48.822;9.304;2023-12-20T07:41:57;6.60;99.90
1534;DHT22;760;48.822;9.304;2023-12-20T07:44:23;6.70;99.90
1534;DHT22;760;48.822;9.304;2023-12-20T07:46:48;6.70;99.90
1534;DHT22;760;48.822;9.304;2023-12-20T07:49:14;6.70;99.90
1534;DHT22;760;48.822;9.304;2023-12-20T07:51:40;6.70;99.90
1534;DHT22;760;48.822;9.304;2023-12-20T07:54:05;6.70;99.90
1534;DHT22;760;48.822;9.304;2023-12-20T07:56:33;6.70;99.90
1534;DHT22;760;48.822;9.304;2023-12-20T07:58:59;6.70;99.90
1534;DHT22;760;48.822;9.304;2023-12-20T08:01:24;6.70;99.90
1534;DHT22;760;48.822;9.304;2023-12-20T08:03:50;6.70;99.90
1534;DHT22;760;48.822;9.304;2023-12-20T08:06:16;6.70;99.90
1534;DHT22;760;48.822;9.304;2023-12-20T08:08:42;6.70;99.90
1534;DHT22;760;48.822;9.304;2023-12-20T08:11:08;6.70;99.90
1534;DHT22;760;48.822;9.304;2023-12-20T08:13:33;6.70;99.90
1534;DHT22;760;48.822;9.304;2023-12-20T08:15:59;6.70;99.90
1534;DHT22;760;48.822;9.304;2023-12-20T08:18:25;6.70;99.90
1534;DHT22;760;48.822;9.304;2023-12-20T08:20:50;6.70;99.90
1534;DHT22;760;48.822;9.304;2023-12-20T08:23:18;6.70;99.90
1534;DHT22;760;48.822;9.304;2023-12-20T08:25:46;6.70;99.90
1534;DHT22;760;48.822;9.304;2023-12-20T08:28:11;6.80;99.90
1534;DHT22;760;48.822;9.304;2023-12-20T08:30:37;6.90;99.90
1534;DHT22;760;48.822;9.304;2023-12-20T08:33:03;7.00;99.90
1534;DHT22;760;48.822;9.304;2023-12-20T08:35:28;6.90;99.90
1534;DHT22;760;48.822;9.304;2023-12-20T08:37:54;6.80;99.90
1534;DHT22;760;48.822;9.304;2023-12-20T08:40:19;6.70;99.90
1534;DHT22;760;48.822;9.304;2023-12-20T08:42:45;6.70;99.90
1534;DHT22;760;48.822;9.304;2023-12-20T08:45:11;6.60;99.90
1534;DHT22;760;48.822;9.304;2023-12-20T08:47:37;6.50;99.90
1534;DHT22;760;48.822;9.304;2023-12-20T08:50:03;6.40;99.90
1534;DHT22;760;48.822;9.304;2023-12-20T08:52:29;6.40;99.90
1534;DHT22;760;48.822;9.304;2023-12-20T08:54:55;6.50;99.90
1534;DHT22;760;48.822;9.304;2023-12-20T08:57:20;6.50;99.90
1534;DHT22;760;48.822;9.304;2023-12-20T08:59:47;6.60;99.90
1534;DHT22;760;48.822;9.304;2023-12-20T09:02:13;6.90;99.90
1534;DHT22;760;48.822;9.304;2023-12-20T09:04:39;7.50;99.90
1534;DHT22;760;48.822;9.304;2023-12-20T09:07:05;8.30;99.90
1534;DHT22;760;48.822;9.304;2023-12-20T09:09:31;9.00;99.90
1534;DHT22;760;48.822;9.304;2023-12-20T09:11:57;9.90;99.90
1534;DHT22;760;48.822;9.304;2023-12-20T09:14:23;10.60;99.90
1534;DHT22;760;48.822;9.304;2023-12-20T09:16:49;11.30;99.90
1534;DHT22;760;48.822;9.304;2023-12-20T09:19:17;11.90;99.90
1534;DHT22;760;48.822;9.304;2023-12-20T09:21:42;12.40;99.90
1534;DHT22;760;48.822;9.304;2023-12-20T09:24:08;12.70;99.90
1534;DHT22;760;48.822;9.304;2023-12-20T09:26:34;13.00;99.90
1534;DHT22;760;48.822;9.304;2023-12-20T09:28:59;13.40;99.90
1534;DHT22;760;48.822;9.304;2023-12-20T09:31:25;13.80;99.90
1534;DHT22;760;48.822;9.304;2023-12-20T09:33:51;14.10;99.90
1534;DHT22;760;48.822;9.304;2023-12-20T09:36:16;14.50;99.90
1534;DHT22;760;48.822;9.304;2023-12-20T09:38:42;14.60;99.90
1534;DHT22;760;48.822;9.304;2023-12-20T09:41:07;14.80;99.50
1534;DHT22;760;48.822;9.304;2023-12-20T09:43:37;14.80;99.30
1534;DHT22;760;48.822;9.304;2023-12-20T09:46:06;15.00;98.80
1534;DHT22;760;48.822;9.304;2023-12-20T09:48:33;15.10;97.60
1534;DHT22;760;48.822;9.304;2023-12-20T09:50:59;15.10;97.20
1534;DHT22;760;48.822;9.304;2023-12-20T09:53:25;15.00;96.40
1534;DHT22;760;48.822;9.304;2023-12-20T09:55:58;15.00;96.30
1534;DHT22;760;48.822;9.304;2023-12-20T09:58:27;14.90;95.60
1534;DHT22;760;48.822;9.304;2023-12-20T10:00:54;14.80;96.00
1534;DHT22;760;48.822;9.304;2023-12-20T10:03:25;14.80;95.80
1534;DHT22;760;48.822;9.304;2023-12-20T10:05:54;14.80;96.30
1534;DHT22;760;48.822;9.304;2023-12-20T10:08:21;14.60;95.50
1534;DHT22;760;48.822;9.304;2023-12-20T10:10:48;14.60;95.40
1534;DHT22;760;48.822;9.304;2023-12-20T10:13:15;14.80;95.50
1534;DHT22;760;48.822;9.304;2023-12-20T10:15:41;14.90;95.20
1534;DHT22;760;48.822;9.304;2023-12-20T10:18:06;14.90;94.60
1534;DHT22;760;48.822;9.304;2023-12-20T10:20:32;14.80;94.30
1534;DHT22;760;48.822;9.304;2023-12-20T10:22:58;14.70;94.20
1534;DHT22;760;48.822;9.304;2023-12-20T10:25:25;14.60;94.40
1534;DHT22;760;48.822;9.304;2023-12-20T10:28:14;14.40;94.50
1534;DHT22;760;48.822;9.304;2023-12-20T10:30:42;14.40;94.40
1534;DHT22;760;48.822;9.304;2023-12-20T10:33:09;14.30;94.60
1534;DHT22;760;48.822;9.304;2023-12-20T10:35:36;14.30;94.30
1534;DHT22;760;48.822;9.304;2023-12-20T10:38:04;14.30;94.40
1534;DHT22;760;48.822;9.304;2023-12-20T10:40:30;14.30;95.10
1534;DHT22;760;48.822;9.304;2023-12-20T10:42:56;14.30;94.60
1534;DHT22;760;48.822;9.304;2023-12-20T10:45:23;14.10;93.60
1534;DHT22;760;48.822;9.304;2023-12-20T10:47:50;13.90;93.10
1534;DHT22;760;48.822;9.304;2023-12-20T10:50:16;13.70;93.60
1534;DHT22;760;48.822;9.304;2023-12-20T10:52:42;13.30;94.00
1534;DHT22;760;48.822;9.304;2023-12-20T10:55:10;12.80;94.50
1534;DHT22;760;48.822;9.304;2023-12-20T10:57:36;12.30;94.90
1534;DHT22;760;48.822;9.304;2023-12-20T11:00:02;11.90;96.00
1534;DHT22;760;48.822;9.304;2023-12-20T11:02:39;11.70;96.20
1534;DHT22;760;48.822;9.304;2023-12-20T11:05:19;11.60;96.70
1534;DHT22;760;48.822;9.304;2023-12-20T11:07:52;11.40;96.90
1534;DHT22;760;48.822;9.304;2023-12-20T11:11:20;11.10;96.90
1534;DHT22;760;48.822;9.304;2023-12-20T11:13:23;10.60;97.50
1534;DHT22;760;48.822;9.304;2023-12-20T11:15:50;10.20;98.70
1534;DHT22;760;48.822;9.304;2023-12-20T11:18:16;9.80;99.90
1534;DHT22;760;48.822;9.304;2023-12-20T11:20:42;9.70;99.90
1534;DHT22;760;48.822;9.304;2023-12-20T11:23:09;9.60;99.90
1534;DHT22;760;48.822;9.304;2023-12-20T11:25:55;9.50;99.90
1534;DHT22;760;48.822;9.304;2023-12-20T11:28:22;9.30;99.90
1534;DHT22;760;48.822;9.304;2023-12-20T11:30:56;9.00;99.90
1534;DHT22;760;48.822;9.304;2023-12-20T11:33:23;8.80;99.90
1534;DHT22;760;48.822;9.304;2023-12-20T11:35:49;8.70;99.90
1534;DHT22;760;48.822;9.304;2023-12-20T11:38:15;8.60;99.90
1534;DHT22;760;48.822;9.304;2023-12-20T11:40:42;8.50;99.90
1534;DHT22;760;48.822;9.304;2023-12-20T11:43:07;8.50;99.90
1534;DHT22;760;48.822;9.304;2023-12-20T11:45:33;8.40;99.90
1534;DHT22;760;48.822;9.304;2023-12-20T11:48:03;8.50;99.90
1534;DHT22;760;48.822;9.304;2023-12-20T11:50:29;8.50;99.90
1534;DHT22;760;48.822;9.304;2023-12-20T11:52:56;8.40;99.90
1534;DHT22;760;48.822;9.304;2023-12-20T11:55:22;8.30;99.90
1534;DHT22;760;48.822;9.304;2023-12-20T11:57:50;8.20;99.90
1534;DHT22;760;48.822;9.304;2023-12-20T12:00:16;8.20;99.90
1534;DHT22;760;48.822;9.304;2023-12-20T12:02:42;8.10;99.90
1534;DHT22;760;48.822;9.304;2023-12-20T12:05:08;8.00;99.90
1534;DHT22;760;48.822;9.304;2023-12-20T12:07:34;7.90;99.90
1534;DHT22;760;48.822;9.304;2023-12-20T12:10:00;7.80;99.90
1534;DHT22;760;48.822;9.304;2023-12-20T12:12:26;7.70;99.90
1534;DHT22;760;48.822;9.304;2023-12-20T12:14:53;7.60;99.90
1534;DHT22;760;48.822;9.304;2023-12-20T12:17:19;7.70;99.90
1534;DHT22;760;48.822;9.304;2023-12-20T12:19:45;7.70;99.90
1534;DHT22;760;48.822;9.304;2023-12-20T12:22:13;7.80;99.90
1534;DHT22;760;48.822;9.304;2023-12-20T12:24:42;7.80;99.90
1534;DHT22;760;48.822;9.304;2023-12-20T12:27:08;7.80;99.90
1534;DHT22;760;48.822;9.304;2023-12-20T12:29:35;7.90;99.90
1534;DHT22;760;48.822;9.304;2023-12-20T12:32:01;8.00;99.90
1534;DHT22;760;48.822;9.304;2023-12-20T12:34:29;8.10;99.90
1534;DHT22;760;48.822;9.304;2023-12-20T12:36:56;8.10;99.90
1534;DHT22;760;48.822;9.304;2023-12-20T12:39:23;8.20;99.90
1534;DHT22;760;48.822;9.304;2023-12-20T12:41:50;8.20;99.90
1534;DHT22;760;48.822;9.304;2023-12-20T12:44:16;8.30;99.90
1534;DHT22;760;48.822;9.304;2023-12-20T12:46:44;8.30;99.90
1534;DHT22;760;48.822;9.304;2023-12-20T12:49:09;8.30;99.90
1534;DHT22;760;48.822;9.304;2023-12-20T12:51:35;8.30;99.90
1534;DHT22;760;48.822;9.304;2023-12-20T12:54:01;8.40;99.90
1534;DHT22;760;48.822;9.304;2023-12-20T12:56:26;8.40;99.90
1534;DHT22;760;48.822;9.304;2023-12-20T12:58:52;8.50;99.90
1534;DHT22;760;48.822;9.304;2023-12-20T13:01:17;8.50;99.90
1534;DHT22;760;48.822;9.304;2023-12-20T13:03:43;8.40;99.90
1534;DHT22;760;48.822;9.304;2023-12-20T13:06:09;8.40;99.90
1534;DHT22;760;48.822;9.304;2023-12-20T13:08:34;8.40;99.90
1534;DHT22;760;48.822;9.304;2023-12-20T13:11:00;8.20;99.90
1534;DHT22;760;48.822;9.304;2023-12-20T13:13:29;8.20;99.90
1534;DHT22;760;48.822;9.304;2023-12-20T13:15:55;8.20;99.90
1534;DHT22;760;48.822;9.304;2023-12-20T13:18:22;8.20;99.90
1534;DHT22;760;48.822;9.304;2023-12-20T13:20:48;8.10;99.90
1534;DHT22;760;48.822;9.304;2023-12-20T13:23:14;8.20;99.90
1534;DHT22;760;48.822;9.304;2023-12-20T13:25:40;8.10;99.90
1534;DHT22;760;48.822;9.304;2023-12-20T13:28:06;8.10;99.90
1534;DHT22;760;48.822;9.304;2023-12-20T13:30:32;8.10;99.90
1534;DHT22;760;48.822;9.304;2023-12-20T13:32:57;8.10;99.90
1534;DHT22;760;48.822;9.304;2023-12-20T13:35:23;8.10;99.90
1534;DHT22;760;48.822;9.304;2023-12-20T13:37:49;8.10;99.90
1534;DHT22;760;48.822;9.304;2023-12-20T13:40:14;8.10;99.90
1534;DHT22;760;48.822;9.304;2023-12-20T13:42:40;8.10;99.90
1534;DHT22;760;48.822;9.304;2023-12-20T13:45:06;8.10;99.90
1534;DHT22;760;48.822;9.304;2023-12-20T13:47:32;8.00;99.90
1534;DHT22;760;48.822;9.304;2023-12-20T13:49:58;8.00;99.90
1534;DHT22;760;48.822;9.304;2023-12-20T13:52:24;8.00;99.90
1534;DHT22;760;48.822;9.304;2023-12-20T13:54:49;7.90;99.90
1534;DHT22;760;48.822;9.304;2023-12-20T13:57:15;7.90;99.90
1534;DHT22;760;48.822;9.304;2023-12-20T13:59:40;7.90;99.90
1534;DHT22;760;48.822;9.304;2023-12-20T14:02:06;7.80;99.90
1534;DHT22;760;48.822;9.304;2023-12-20T14:04:32;7.80;99.90
1534;DHT22;760;48.822;9.304;2023-12-20T14:06:58;7.70;99.90
1534;DHT22;760;48.822;9.304;2023-12-20T14:09:23;7.70;99.90
1534;DHT22;760;48.822;9.304;2023-12-20T14:11:49;7.60;99.90
1534;DHT22;760;48.822;9.304;2023-12-20T14:14:15;7.50;99.90
1534;DHT22;760;48.822;9.304;2023-12-20T14:16:40;7.40;99.90
1534;DHT22;760;48.822;9.304;2023-12-20T14:19:08;7.40;99.90
1534;DHT22;760;48.822;9.304;2023-12-20T14:21:35;7.40;99.90
1534;DHT22;760;48.822;9.304;2023-12-20T14:24:00;7.40;99.90
1534;DHT22;760;48.822;9.304;2023-12-20T14:26:27;7.40;99.90
1534;DHT22;760;48.822;9.304;2023-12-20T14:28:53;7.40;99.90
1534;DHT22;760;48.822;9.304;2023-12-20T14:31:19;7.40;99.90
1534;DHT22;760;48.822;9.304;2023-12-20T14:33:44;7.30;99.90
1534;DHT22;760;48.822;9.304;2023-12-20T14:36:11;7.20;99.90
1534;DHT22;760;48.822;9.304;2023-12-20T14:38:37;7.20;99.90
1534;DHT22;760;48.822;9.304;2023-12-20T14:41:03;7.20;99.90
1534;DHT22;760;48.822;9.304;2023-12-20T14:43:29;7.20;99.90
1534;DHT22;760;48.822;9.304;2023-12-20T14:45:55;7.10;99.90
1534;DHT22;760;48.822;9.304;2023-12-20T14:48:21;7.10;99.90
1534;DHT22;760;48.822;9.304;2023-12-20T14:50:46;7.10;99.90
1534;DHT22;760;48.822;9.304;2023-12-20T14:53:14;7.00;99.90
1534;DHT22;760;48.822;9.304;2023-12-20T14:55:42;7.00;99.90
1534;DHT22;760;48.822;9.304;2023-12-20T14:58:08;7.00;99.90
1534;DHT22;760;48.822;9.304;2023-12-20T15:00:33;7.00;99.90
1534;DHT22;760;48.822;9.304;2023-12-20T15:02:59;6.90;99.90
1534;DHT22;760;48.822;9.304;2023-12-20T15:05:25;6.90;99.90
1534;DHT22;760;48.822;9.304;2023-12-20T15:07:52;6.90;99.90
1534;DHT22;760;48.822;9.304;2023-12-20T15:10:18;6.90;99.90
1534;DHT22;760;48.822;9.304;2023-12-20T15:12:44;6.80;99.90
1534;DHT22;760;48.822;9.304;2023-12-20T15:15:10;6.70;99.90
1534;DHT22;760;48.822;9.304;2023-12-20T15:17:36;6.70;99.90
1534;DHT22;760;48.822;9.304;2023-12-20T15:20:02;6.70;99.90
1534;DHT22;760;48.822;9.304;2023-12-20T15:22:30;6.70;99.90
1534;DHT22;760;48.822;9.304;2023-12-20T15:24:55;6.60;99.90
1534;DHT22;760;48.822;9.304;2023-12-20T15:27:21;6.60;99.90
1534;DHT22;760;48.822;9.304;2023-12-20T15:29:46;6.60;99.90
1534;DHT22;760;48.822;9.304;2023-12-20T15:32:12;6.60;99.90
1534;DHT22;760;48.822;9.304;2023-12-20T15:34:38;6.50;99.90
1534;DHT22;760;48.822;9.304;2023-12-20T15:37:03;6.40;99.90
1534;DHT22;760;48.822;9.304;2023-12-20T15:39:29;6.40;99.90
1534;DHT22;760;48.822;9.304;2023-12-20T15:41:55;6.40;99.90
1534;DHT22;760;48.822;9.304;2023-12-20T15:44:20;6.40;99.90
1534;DHT22;760;48.822;9.304;2023-12-20T15:46:46;6.40;99.90
1534;DHT22;760;48.822;9.304;2023-12-20T15:49:11;6.50;99.90
1534;DHT22;760;48.822;9.304;2023-12-20T15:51:37;6.50;99.90
1534;DHT22;760;48.822;9.304;2023-12-20T15:54:03;6.50;99.90
1534;DHT22;760;48.822;9.304;2023-12-20T15:56:32;6.50;99.90
1534;DHT22;760;48.822;9.304;2023-12-20T15:58:58;6.50;99.90
1534;DHT22;760;48.822;9.304;2023-12-20T16:01:25;6.50;99.90
1534;DHT22;760;48.822;9.304;2023-12-20T16:03:51;6.50;99.90
1534;DHT22;760;48.822;9.304;2023-12-20T16:06:16;6.50;99.90
1534;DHT22;760;48.822;9.304;2023-12-20T16:08:42;6.60;99.90
1534;DHT22;760;48.822;9.304;2023-12-20T16:11:08;6.50;99.90
1534;DHT22;760;48.822;9.304;2023-12-20T16:13:33;6.50;99.90
1534;DHT22;760;48.822;9.304;2023-12-20T16:16:03;6.50;99.90
1534;DHT22;760;48.822;9.304;2023-12-20T16:18:29;6.40;99.90
1534;DHT22;760;48.822;9.304;2023-12-20T16:20:54;6.40;99.90
1534;DHT22;760;48.822;9.304;2023-12-20T16:23:20;6.40;99.90
1534;DHT22;760;48.822;9.304;2023-12-20T16:25:46;6.40;99.90
1534;DHT22;760;48.822;9.304;2023-12-20T16:28:11;6.40;99.90
1534;DHT22;760;48.822;9.304;2023-12-20T16:30:37;6.40;99.90
1534;DHT22;760;48.822;9.304;2023-12-20T16:33:02;6.40;99.90
1534;DHT22;760;48.822;9.304;2023-12-20T16:35:28;6.40;99.90
1534;DHT22;760;48.822;9.304;2023-12-20T16:37:54;6.40;99.90
1534;DHT22;760;48.822;9.304;2023-12-20T16:40:19;6.40;99.90
1534;DHT22;760;48.822;9.304;2023-12-20T16:42:53;6.40;99.90
1534;DHT22;760;48.822;9.304;2023-12-20T16:45:21;6.40;99.90
1534;DHT22;760;48.822;9.304;2023-12-20T16:47:47;6.40;99.90
1534;DHT22;760;48.822;9.304;2023-12-20T16:50:13;6.40;99.90
1534;DHT22;760;48.822;9.304;2023-12-20T16:52:39;6.40;99.90
1534;DHT22;760;48.822;9.304;2023-12-20T16:55:05;6.40;99.90
1534;DHT22;760;48.822;9.304;2023-12-20T16:57:31;6.40;99.90
1534;DHT22;760;48.822;9.304;2023-12-20T16:59:56;6.40;99.90
1534;DHT22;760;48.822;9.304;2023-12-20T17:02:22;6.40;99.90
1534;DHT22;760;48.822;9.304;2023-12-20T17:04:47;6.40;99.90
1534;DHT22;760;48.822;9.304;2023-12-20T17:07:14;6.30;99.90
1534;DHT22;760;48.822;9.304;2023-12-20T17:09:40;6.30;99.90
1534;DHT22;760;48.822;9.304;2023-12-20T17:12:06;6.30;99.90
1534;DHT22;760;48.822;9.304;2023-12-20T17:14:33;6.30;99.90
1534;DHT22;760;48.822;9.304;2023-12-20T17:16:59;6.30;99.90
1534;DHT22;760;48.822;9.304;2023-12-20T17:19:24;6.30;99.90
1534;DHT22;760;48.822;9.304;2023-12-20T17:21:53;6.30;99.90
1534;DHT22;760;48.822;9.304;2023-12-20T17:24:18;6.30;99.90
1534;DHT22;760;48.822;9.304;2023-12-20T17:26:44;6.40;99.90
1534;DHT22;760;48.822;9.304;2023-12-20T17:29:10;6.30;99.90
1534;DHT22;760;48.822;9.304;2023-12-20T17:31:35;6.40;99.90
1534;DHT22;760;48.822;9.304;2023-12-20T17:34:01;6.40;99.90
1534;DHT22;760;48.822;9.304;2023-12-20T17:36:27;6.40;99.90
1534;DHT22;760;48.822;9.304;2023-12-20T17:38:52;6.30;99.90
1534;DHT22;760;48.822;9.304;2023-12-20T17:41:18;6.30;99.90
1534;DHT22;760;48.822;9.304;2023-12-20T17:43:43;6.30;99.90
1534;DHT22;760;48.822;9.304;2023-12-20T17:46:09;6.30;99.90
1534;DHT22;760;48.822;9.304;2023-12-20T17:48:35;6.30;99.90
1534;DHT22;760;48.822;9.304;2023-12-20T17:51:00;6.30;99.90
1534;DHT22;760;48.822;9.304;2023-12-20T17:53:26;6.30;99.90
1534;DHT22;760;48.822;9.304;2023-12-20T17:55:52;6.40;99.90
1534;DHT22;760;48.822;9.304;2023-12-20T17:58:18;6.40;99.90
1534;DHT22;760;48.822;9.304;2023-12-20T18:00:43;6.40;99.90
1534;DHT22;760;48.822;9.304;2023-12-20T18:03:09;6.40;99.90
1534;DHT22;760;48.822;9.304;2023-12-20T18:05:35;6.40;99.90
1534;DHT22;760;48.822;9.304;2023-12-20T18:08:01;6.40;99.90
1534;DHT22;760;48.822;9.304;2023-12-20T18:10:26;6.40;99.90
1534;DHT22;760;48.822;9.304;2023-12-20T18:12:52;6.40;99.90
1534;DHT22;760;48.822;9.304;2023-12-20T18:15:18;6.40;99.90
1534;DHT22;760;48.822;9.304;2023-12-20T18:17:43;6.30;99.90
1534;DHT22;760;48.822;9.304;2023-12-20T18:20:09;6.40;99.90
1534;DHT22;760;48.822;9.304;2023-12-20T18:22:35;6.40;99.90
1534;DHT22;760;48.822;9.304;2023-12-20T18:25:01;6.40;99.90
1534;DHT22;760;48.822;9.304;2023-12-20T18:27:27;6.40;99.90
1534;DHT22;760;48.822;9.304;2023-12-20T18:29:52;6.40;99.90
1534;DHT22;760;48.822;9.304;2023-12-20T18:32:19;6.40;99.90
1534;DHT22;760;48.822;9.304;2023-12-20T18:34:45;6.40;99.90
1534;DHT22;760;48.822;9.304;2023-12-20T18:37:11;6.40;99.90
1534;DHT22;760;48.822;9.304;2023-12-20T18:39:38;6.40;99.90
1534;DHT22;760;48.822;9.304;2023-12-20T18:42:05;6.40;99.90
1534;DHT22;760;48.822;9.304;2023-12-20T18:44:31;6.40;99.90
1534;DHT22;760;48.822;9.304;2023-12-20T18:46:59;6.30;99.90
1534;DHT22;760;48.822;9.304;2023-12-20T18:49:25;6.30;99.90
1534;DHT22;760;48.822;9.304;2023-12-20T18:51:51;6.30;99.90
1534;DHT22;760;48.822;9.304;2023-12-20T18:54:16;6.30;99.90
1534;DHT22;760;48.822;9.304;2023-12-20T18:56:43;6.40;99.90
1534;DHT22;760;48.822;9.304;2023-12-20T18:59:09;6.30;99.90
1534;DHT22;760;48.822;9.304;2023-12-20T19:01:36;6.30;99.90
1534;DHT22;760;48.822;9.304;2023-12-20T19:04:02;6.30;99.90
1534;DHT22;760;48.822;9.304;2023-12-20T19:06:27;6.30;99.90
1534;DHT22;760;48.822;9.304;2023-12-20T19:08:53;6.30;99.90
1534;DHT22;760;48.822;9.304;2023-12-20T19:11:19;6.30;99.90
1534;DHT22;760;48.822;9.304;2023-12-20T19:13:44;6.30;99.90
1534;DHT22;760;48.822;9.304;2023-12-20T19:16:11;6.30;99.90
1534;DHT22;760;48.822;9.304;2023-12-20T19:18:36;6.30;99.90
1534;DHT22;760;48.822;9.304;2023-12-20T19:21:02;6.40;99.90
1534;DHT22;760;48.822;9.304;2023-12-20T19:23:32;6.30;99.90
1534;DHT22;760;48.822;9.304;2023-12-20T19:25:58;6.30;99.90
1534;DHT22;760;48.822;9.304;2023-12-20T19:28:27;6.30;99.90
1534;DHT22;760;48.822;9.304;2023-12-20T19:30:53;6.40;99.90
1534;DHT22;760;48.822;9.304;2023-12-20T19:33:18;6.40;99.90
1534;DHT22;760;48.822;9.304;2023-12-20T19:35:44;6.40;99.90
1534;DHT22;760;48.822;9.304;2023-12-20T19:38:10;6.30;99.90
1534;DHT22;760;48.822;9.304;2023-12-20T19:40:35;6.40;99.90
1534;DHT22;760;48.822;9.304;2023-12-20T19:43:01;6.30;99.90
1534;DHT22;760;48.822;9.304;2023-12-20T19:45:28;6.40;99.90
1534;DHT22;760;48.822;9.304;2023-12-20T19:47:53;6.30;99.90
1534;DHT22;760;48.822;9.304;2023-12-20T19:50:19;6.30;99.90
1534;DHT22;760;48.822;9.304;2023-12-20T19:52:46;6.30;99.90
1534;DHT22;760;48.822;9.304;2023-12-20T19:55:12;6.30;99.90
1534;DHT22;760;48.822;9.304;2023-12-20T19:57:38;6.30;99.90
1534;DHT22;760;48.822;9.304;2023-12-20T20:00:04;6.20;99.90
1534;DHT22;760;48.822;9.304;2023-12-20T20:02:30;6.10;99.90
1534;DHT22;760;48.822;9.304;2023-12-20T20:04:56;6.10;99.90
1534;DHT22;760;48.822;9.304;2023-12-20T20:07:21;6.10;99.90
1534;DHT22;760;48.822;9.304;2023-12-20T20:09:49;6.00;99.90
1534;DHT22;760;48.822;9.304;2023-12-20T20:12:14;6.00;99.90
1534;DHT22;760;48.822;9.304;2023-12-20T20:14:40;6.00;99.90
1534;DHT22;760;48.822;9.304;2023-12-20T20:17:06;6.00;99.90
1534;DHT22;760;48.822;9.304;2023-12-20T20:19:32;6.00;99.90
1534;DHT22;760;48.822;9.304;2023-12-20T20:21:58;6.00;99.90
1534;DHT22;760;48.822;9.304;2023-12-20T20:24:24;5.90;99.90
1534;DHT22;760;48.822;9.304;2023-12-20T20:26:50;5.90;99.90
1534;DHT22;760;48.822;9.304;2023-12-20T20:29:16;5.90;99.90
1534;DHT22;760;48.822;9.304;2023-12-20T20:31:42;5.90;99.90
1534;DHT22;760;48.822;9.304;2023-12-20T20:34:08;5.90;99.90
1534;DHT22;760;48.822;9.304;2023-12-20T20:36:33;6.00;99.90
1534;DHT22;760;48.822;9.304;2023-12-20T20:38:59;6.00;99.90
1534;DHT22;760;48.822;9.304;2023-12-20T20:41:25;6.00;99.90
1534;DHT22;760;48.822;9.304;2023-12-20T20:43:51;6.00;99.90
1534;DHT22;760;48.822;9.304;2023-12-20T20:46:17;6.00;99.90
1534;DHT22;760;48.822;9.304;2023-12-20T20:48:45;6.10;99.90
1534;DHT22;760;48.822;9.304;2023-12-20T20:51:11;6.00;99.90
1534;DHT22;760;48.822;9.304;2023-12-20T20:53:37;6.10;99.90
1534;DHT22;760;48.822;9.304;2023-12-20T20:56:03;6.10;99.90
1534;DHT22;760;48.822;9.304;2023-12-20T20:58:29;6.10;99.90
1534;DHT22;760;48.822;9.304;2023-12-20T21:00:54;6.10;99.90
1534;DHT22;760;48.822;9.304;2023-12-20T21:03:20;6.10;99.90
1534;DHT22;760;48.822;9.304;2023-12-20T21:05:45;6.10;99.90
1534;DHT22;760;48.822;9.304;2023-12-20T21:08:11;6.10;99.90
1534;DHT22;760;48.822;9.304;2023-12-20T21:10:37;6.20;99.90
1534;DHT22;760;48.822;9.304;2023-12-20T21:13:02;6.10;99.90
1534;DHT22;760;48.822;9.304;2023-12-20T21:15:28;6.20;99.90
1534;DHT22;760;48.822;9.304;2023-12-20T21:17:53;6.20;99.90
1534;DHT22;760;48.822;9.304;2023-12-20T21:20:19;6.30;99.90
1534;DHT22;760;48.822;9.304;2023-12-20T21:22:45;6.30;99.90
1534;DHT22;760;48.822;9.304;2023-12-20T21:25:11;6.30;99.90
1534;DHT22;760;48.822;9.304;2023-12-20T21:27:37;6.30;99.90
1534;DHT22;760;48.822;9.304;2023-12-20T21:30:07;6.30;99.90